sensor_id;sensor_type;location;lat;lon;timestamp;pressure;altitude;pressure_sealevel;temperature;humidity
9721;BME280;4899;42.644;23.366;2023-02-19T00:01:47;94519.34;;;7.04;78.29
9721;BME280;4899;42.644;23.366;2023-02-19T00:04:18;94520.59;;;7.07;73.69
9721;BME280;4899;42.644;23.366;2023-02-19T00:06:45;94512.16;;;7.06;74.09
9721;BME280;4899;42.644;23.366;2023-02-19T00:09:12;94530.50;;;6.95;74.17
9721;BME280;4899;42.644;23.366;2023-02-19T00:11:39;94509.84;;;6.67;75.88
9721;BME280;4899;42.644;23.366;2023-02-19T00:14:05;94500.66;;;6.47;76.17
9721;BME280;4899;42.644;23.366;2023-02-19T00:16:38;94514.75;;;6.64;77.53
9721;BME280;4899;42.644;23.366;2023-02-19T00:19:06;94506.59;;;6.62;76.17
9721;BME280;4899;42.644;23.366;2023-02-19T00:21:32;94475.19;;;6.37;76.64
9721;BME280;4899;42.644;23.366;2023-02-19T00:24:03;94493.69;;;6.53;77.07
9721;BME280;4899;42.644;23.366;2023-02-19T00:26:29;94515.50;;;6.45;78.21
9721;BME280;4899;42.644;23.366;2023-02-19T00:28:55;94503.63;;;6.31;79.14
9721;BME280;4899;42.644;23.366;2023-02-19T00:33:47;94502.22;;;6.20;80.65
9721;BME280;4899;42.644;23.366;2023-02-19T00:36:14;94490.38;;;6.05;82.10
9721;BME280;4899;42.644;23.366;2023-02-19T00:38:40;94488.91;;;5.99;82.41
9721;BME280;4899;42.644;23.366;2023-02-19T00:41:08;94485.31;;;6.00;82.87
9721;BME280;4899;42.644;23.366;2023-02-19T00:44:00;94485.09;;;5.96;81.62
9721;BME280;4899;42.644;23.366;2023-02-19T00:48:53;94486.94;;;5.91;83.53
9721;BME280;4899;42.644;23.366;2023-02-19T00:51:19;94482.34;;;5.87;83.59
9721;BME280;4899;42.644;23.366;2023-02-19T00:53:45;94469.63;;;5.82;84.86
9721;BME280;4899;42.644;23.366;2023-02-19T00:56:11;94461.25;;;5.77;84.68
9721;BME280;4899;42.644;23.366;2023-02-19T00:58:37;94468.66;;;5.78;86.01
9721;BME280;4899;42.644;23.366;2023-02-19T01:01:03;94465.41;;;5.68;87.19
9721;BME280;4899;42.644;23.366;2023-02-19T01:03:30;94460.59;;;5.66;87.93
9721;BME280;4899;42.644;23.366;2023-02-19T01:05:56;94446.22;;;5.75;87.55
9721;BME280;4899;42.644;23.366;2023-02-19T01:08:22;94455.41;;;5.76;86.70
9721;BME280;4899;42.644;23.366;2023-02-19T01:10:49;94443.59;;;5.56;87.06
9721;BME280;4899;42.644;23.366;2023-02-19T01:13:15;94469.19;;;5.75;87.26
9721;BME280;4899;42.644;23.366;2023-02-19T01:15:41;94463.31;;;5.75;89.66
9721;BME280;4899;42.644;23.366;2023-02-19T01:18:07;94451.53;;;5.79;88.44
9721;BME280;4899;42.644;23.366;2023-02-19T01:20:33;94449.25;;;5.77;88.56
9721;BME280;4899;42.644;23.366;2023-02-19T01:22:58;94456.38;;;5.80;88.78
9721;BME280;4899;42.644;23.366;2023-02-19T01:25:23;94453.56;;;5.82;87.43
9721;BME280;4899;42.644;23.366;2023-02-19T01:27:49;94455.13;;;5.78;88.30
9721;BME280;4899;42.644;23.366;2023-02-19T01:30:16;94473.75;;;5.78;88.12
9721;BME280;4899;42.644;23.366;2023-02-19T01:32:42;94468.22;;;5.71;89.46
9721;BME280;4899;42.644;23.366;2023-02-19T01:35:07;94471.28;;;5.68;88.59
9721;BME280;4899;42.644;23.366;2023-02-19T01:37:33;94462.97;;;5.57;89.40
9721;BME280;4899;42.644;23.366;2023-02-19T01:39:58;94487.41;;;5.64;88.94
9721;BME280;4899;42.644;23.366;2023-02-19T01:42:24;94471.34;;;5.63;90.83
9721;BME280;4899;42.644;23.366;2023-02-19T01:47:16;94494.63;;;5.56;90.03
9721;BME280;4899;42.644;23.366;2023-02-19T01:49:53;94512.56;;;5.41;89.19
9721;BME280;4899;42.644;23.366;2023-02-19T01:52:28;94514.41;;;5.36;91.71
9721;BME280;4899;42.644;23.366;2023-02-19T01:54:57;94524.84;;;5.39;91.40
9721;BME280;4899;42.644;23.366;2023-02-19T01:57:25;94508.50;;;5.40;93.96
9721;BME280;4899;42.644;23.366;2023-02-19T02:00:05;94497.59;;;5.35;94.35
9721;BME280;4899;42.644;23.366;2023-02-19T02:02:32;94515.94;;;5.37;92.08
9721;BME280;4899;42.644;23.366;2023-02-19T02:04:58;94499.59;;;5.38;95.64
9721;BME280;4899;42.644;23.366;2023-02-19T02:07:25;94515.66;;;5.38;92.78
9721;BME280;4899;42.644;23.366;2023-02-19T02:10:10;94514.13;;;5.37;91.56
9721;BME280;4899;42.644;23.366;2023-02-19T02:12:46;94486.66;;;5.29;93.85
9721;BME280;4899;42.644;23.366;2023-02-19T02:15:12;94496.88;;;5.29;93.75
9721;BME280;4899;42.644;23.366;2023-02-19T02:18:05;94511.09;;;5.35;95.45
9721;BME280;4899;42.644;23.366;2023-02-19T02:21:19;94492.22;;;5.36;96.76
9721;BME280;4899;42.644;23.366;2023-02-19T02:24:31;94510.59;;;5.33;98.35
9721;BME280;4899;42.644;23.366;2023-02-19T02:27:01;94518.47;;;5.37;94.08
9721;BME280;4899;42.644;23.366;2023-02-19T02:32:20;94493.03;;;5.32;94.89
9721;BME280;4899;42.644;23.366;2023-02-19T02:35:04;94508.28;;;5.37;95.64
9721;BME280;4899;42.644;23.366;2023-02-19T02:37:34;94497.31;;;5.36;98.20
9721;BME280;4899;42.644;23.366;2023-02-19T02:40:02;94500.03;;;5.45;93.88
9721;BME280;4899;42.644;23.366;2023-02-19T02:42:28;94509.25;;;5.46;92.95
9721;BME280;4899;42.644;23.366;2023-02-19T02:44:55;94508.22;;;5.42;93.37
9721;BME280;4899;42.644;23.366;2023-02-19T02:47:52;94494.22;;;5.39;95.07
9721;BME280;4899;42.644;23.366;2023-02-19T02:50:24;94482.25;;;5.40;94.40
9721;BME280;4899;42.644;23.366;2023-02-19T02:52:55;94490.59;;;5.50;93.31
9721;BME280;4899;42.644;23.366;2023-02-19T02:55:44;94487.28;;;5.50;93.31
9721;BME280;4899;42.644;23.366;2023-02-19T02:58:11;94490.16;;;5.38;92.68
9721;BME280;4899;42.644;23.366;2023-02-19T03:00:39;94488.84;;;5.41;92.49
9721;BME280;4899;42.644;23.366;2023-02-19T03:03:27;94490.88;;;5.44;92.85
9721;BME280;4899;42.644;23.366;2023-02-19T03:05:57;94507.19;;;5.48;92.09
9721;BME280;4899;42.644;23.366;2023-02-19T03:08:28;94489.34;;;5.43;92.46
9721;BME280;4899;42.644;23.366;2023-02-19T03:11:01;94470.44;;;5.15;94.57
9721;BME280;4899;42.644;23.366;2023-02-19T03:13:52;94505.28;;;5.30;93.85
9721;BME280;4899;42.644;23.366;2023-02-19T03:16:41;94508.50;;;5.40;93.58
9721;BME280;4899;42.644;23.366;2023-02-19T03:19:29;94517.41;;;5.43;93.12
9721;BME280;4899;42.644;23.366;2023-02-19T03:24:32;94528.75;;;5.27;96.09
9721;BME280;4899;42.644;23.366;2023-02-19T03:27:19;94533.22;;;5.06;96.03
9721;BME280;4899;42.644;23.366;2023-02-19T03:29:46;94522.59;;;4.88;97.23
9721;BME280;4899;42.644;23.366;2023-02-19T03:32:17;94537.25;;;4.62;99.42
9721;BME280;4899;42.644;23.366;2023-02-19T03:34:50;94548.22;;;4.58;100.00
9721;BME280;4899;42.644;23.366;2023-02-19T03:37:24;94551.06;;;4.51;100.00
9721;BME280;4899;42.644;23.366;2023-02-19T03:39:52;94536.28;;;4.43;100.00
9721;BME280;4899;42.644;23.366;2023-02-19T03:45:18;94549.03;;;4.38;100.00
9721;BME280;4899;42.644;23.366;2023-02-19T03:47:53;94557.44;;;4.49;100.00
9721;BME280;4899;42.644;23.366;2023-02-19T03:53:02;94557.63;;;4.57;100.00
9721;BME280;4899;42.644;23.366;2023-02-19T04:01:02;94559.94;;;4.54;100.00
9721;BME280;4899;42.644;23.366;2023-02-19T04:06:31;94566.84;;;4.43;100.00
9721;BME280;4899;42.644;23.366;2023-02-19T04:09:01;94571.69;;;4.50;100.00
9721;BME280;4899;42.644;23.366;2023-02-19T04:11:28;94568.38;;;4.44;100.00
9721;BME280;4899;42.644;23.366;2023-02-19T04:14:06;94584.69;;;4.48;100.00
9721;BME280;4899;42.644;23.366;2023-02-19T04:16:35;94582.13;;;4.43;100.00
9721;BME280;4899;42.644;23.366;2023-02-19T04:19:07;94560.72;;;4.44;100.00
9721;BME280;4899;42.644;23.366;2023-02-19T04:21:36;94585.94;;;4.51;100.00
9721;BME280;4899;42.644;23.366;2023-02-19T04:24:09;94576.28;;;4.38;100.00
9721;BME280;4899;42.644;23.366;2023-02-19T04:26:36;94585.22;;;4.35;100.00
9721;BME280;4899;42.644;23.366;2023-02-19T04:29:02;94584.72;;;4.28;100.00
9721;BME280;4899;42.644;23.366;2023-02-19T04:31:29;94586.50;;;4.27;100.00
9721;BME280;4899;42.644;23.366;2023-02-19T04:33:56;94574.03;;;4.21;100.00
9721;BME280;4899;42.644;23.366;2023-02-19T04:36:22;94587.28;;;4.23;100.00
9721;BME280;4899;42.644;23.366;2023-02-19T04:38:48;94582.19;;;4.18;100.00
9721;BME280;4899;42.644;23.366;2023-02-19T04:41:13;94588.03;;;4.23;100.00
9721;BME280;4899;42.644;23.366;2023-02-19T04:43:39;94593.59;;;4.36;100.00
9721;BME280;4899;42.644;23.366;2023-02-19T04:46:04;94574.03;;;4.21;100.00
9721;BME280;4899;42.644;23.366;2023-02-19T04:48:30;94582.16;;;4.38;100.00
9721;BME280;4899;42.644;23.366;2023-02-19T04:50:55;94581.13;;;4.34;100.00
9721;BME280;4899;42.644;23.366;2023-02-19T04:53:21;94576.28;;;4.43;100.00
9721;BME280;4899;42.644;23.366;2023-02-19T04:55:47;94585.13;;;4.66;100.00
9721;BME280;4899;42.644;23.366;2023-02-19T04:58:13;94587.34;;;4.82;100.00
9721;BME280;4899;42.644;23.366;2023-02-19T05:00:38;94588.34;;;4.86;100.00
9721;BME280;4899;42.644;23.366;2023-02-19T05:03:04;94590.91;;;4.86;100.00
9721;BME280;4899;42.644;23.366;2023-02-19T05:05:30;94595.75;;;4.88;100.00
9721;BME280;4899;42.644;23.366;2023-02-19T05:07:55;94585.56;;;4.83;100.00
9721;BME280;4899;42.644;23.366;2023-02-19T05:10:21;94608.47;;;4.93;100.00
9721;BME280;4899;42.644;23.366;2023-02-19T05:12:46;94595.22;;;4.91;100.00
9721;BME280;4899;42.644;23.366;2023-02-19T05:15:12;94596.47;;;4.93;100.00
9721;BME280;4899;42.644;23.366;2023-02-19T05:17:38;94610.97;;;5.03;100.00
9721;BME280;4899;42.644;23.366;2023-02-19T05:20:03;94607.13;;;5.11;100.00
9721;BME280;4899;42.644;23.366;2023-02-19T05:22:29;94611.16;;;5.17;100.00
9721;BME280;4899;42.644;23.366;2023-02-19T05:24:54;94601.72;;;5.17;100.00
9721;BME280;4899;42.644;23.366;2023-02-19T05:27:20;94602.22;;;5.19;100.00
9721;BME280;4899;42.644;23.366;2023-02-19T05:29:46;94614.13;;;5.34;99.90
9721;BME280;4899;42.644;23.366;2023-02-19T05:32:11;94617.34;;;5.55;99.64
9721;BME280;4899;42.644;23.366;2023-02-19T05:34:38;94612.59;;;5.77;97.83
9721;BME280;4899;42.644;23.366;2023-02-19T05:37:03;94616.09;;;5.92;96.06
9721;BME280;4899;42.644;23.366;2023-02-19T05:39:29;94630.34;;;5.98;94.07
9721;BME280;4899;42.644;23.366;2023-02-19T05:41:55;94619.56;;;6.06;95.09
9721;BME280;4899;42.644;23.366;2023-02-19T05:44:20;94621.41;;;6.29;94.19
9721;BME280;4899;42.644;23.366;2023-02-19T05:46:46;94627.97;;;6.64;91.42
9721;BME280;4899;42.644;23.366;2023-02-19T05:49:11;94620.28;;;6.88;90.03
9721;BME280;4899;42.644;23.366;2023-02-19T05:51:36;94628.63;;;6.99;88.17
9721;BME280;4899;42.644;23.366;2023-02-19T05:54:02;94627.88;;;7.17;87.21
9721;BME280;4899;42.644;23.366;2023-02-19T05:56:38;94631.88;;;7.47;84.95
9721;BME280;4899;42.644;23.366;2023-02-19T05:59:12;94638.72;;;7.70;83.73
9721;BME280;4899;42.644;23.366;2023-02-19T06:01:38;94630.41;;;7.79;82.09
9721;BME280;4899;42.644;23.366;2023-02-19T06:04:04;94647.97;;;8.04;80.70
9721;BME280;4899;42.644;23.366;2023-02-19T06:06:30;94652.91;;;8.14;79.44
9721;BME280;4899;42.644;23.366;2023-02-19T06:08:56;94651.06;;;8.20;79.01
9721;BME280;4899;42.644;23.366;2023-02-19T06:11:23;94655.81;;;8.26;78.30
9721;BME280;4899;42.644;23.366;2023-02-19T06:13:49;94656.63;;;8.41;76.08
9721;BME280;4899;42.644;23.366;2023-02-19T06:16:15;94664.16;;;8.51;76.37
9721;BME280;4899;42.644;23.366;2023-02-19T06:18:42;94666.53;;;8.61;75.03
9721;BME280;4899;42.644;23.366;2023-02-19T06:21:10;94659.63;;;8.61;74.81
9721;BME280;4899;42.644;23.366;2023-02-19T06:23:36;94667.50;;;8.65;74.70
9721;BME280;4899;42.644;23.366;2023-02-19T06:26:13;94659.91;;;8.60;73.64
9721;BME280;4899;42.644;23.366;2023-02-19T06:28:40;94663.59;;;8.54;74.08
9721;BME280;4899;42.644;23.366;2023-02-19T06:31:07;94668.06;;;8.62;73.16
9721;BME280;4899;42.644;23.366;2023-02-19T06:33:33;94670.06;;;8.65;73.80
9721;BME280;4899;42.644;23.366;2023-02-19T06:36:00;94661.44;;;8.75;73.07
9721;BME280;4899;42.644;23.366;2023-02-19T06:38:26;94668.47;;;8.83;73.72
9721;BME280;4899;42.644;23.366;2023-02-19T06:40:52;94676.56;;;8.90;72.46
9721;BME280;4899;42.644;23.366;2023-02-19T06:43:17;94653.84;;;8.83;72.26
9721;BME280;4899;42.644;23.366;2023-02-19T06:45:43;94660.31;;;8.94;72.08
9721;BME280;4899;42.644;23.366;2023-02-19T06:48:08;94657.75;;;8.94;71.87
9721;BME280;4899;42.644;23.366;2023-02-19T06:50:34;94659.56;;;9.08;71.87
9721;BME280;4899;42.644;23.366;2023-02-19T06:52:59;94665.34;;;9.13;70.84
9721;BME280;4899;42.644;23.366;2023-02-19T06:55:24;94666.69;;;9.24;71.19
9721;BME280;4899;42.644;23.366;2023-02-19T06:57:50;94655.56;;;9.29;70.38
9721;BME280;4899;42.644;23.366;2023-02-19T07:00:16;94673.13;;;9.49;69.81
9721;BME280;4899;42.644;23.366;2023-02-19T07:02:41;94668.22;;;9.62;69.25
9721;BME280;4899;42.644;23.366;2023-02-19T07:05:07;94675.28;;;9.70;67.72
9721;BME280;4899;42.644;23.366;2023-02-19T07:07:32;94668.78;;;9.72;67.82
9721;BME280;4899;42.644;23.366;2023-02-19T07:09:58;94681.88;;;9.84;66.99
9721;BME280;4899;42.644;23.366;2023-02-19T07:12:23;94679.78;;;9.86;66.75
9721;BME280;4899;42.644;23.366;2023-02-19T07:14:49;94664.94;;;9.83;66.94
9721;BME280;4899;42.644;23.366;2023-02-19T07:17:14;94686.53;;;9.96;66.09
9721;BME280;4899;42.644;23.366;2023-02-19T07:19:40;94671.41;;;9.95;65.88
9721;BME280;4899;42.644;23.366;2023-02-19T07:22:05;94669.41;;;9.92;65.08
9721;BME280;4899;42.644;23.366;2023-02-19T07:24:31;94658.25;;;9.96;65.42
9721;BME280;4899;42.644;23.366;2023-02-19T07:26:56;94667.38;;;10.02;64.92
9721;BME280;4899;42.644;23.366;2023-02-19T07:29:22;94658.00;;;10.06;64.56
9721;BME280;4899;42.644;23.366;2023-02-19T07:31:47;94653.81;;;10.10;64.67
9721;BME280;4899;42.644;23.366;2023-02-19T07:34:13;94662.34;;;10.20;63.96
9721;BME280;4899;42.644;23.366;2023-02-19T07:36:38;94647.69;;;10.20;63.43
9721;BME280;4899;42.644;23.366;2023-02-19T07:39:04;94662.19;;;10.38;63.05
9721;BME280;4899;42.644;23.366;2023-02-19T07:41:30;94658.03;;;10.51;63.17
9721;BME280;4899;42.644;23.366;2023-02-19T07:43:55;94652.44;;;10.58;62.78
9721;BME280;4899;42.644;23.366;2023-02-19T07:46:22;94669.94;;;10.69;62.29
9721;BME280;4899;42.644;23.366;2023-02-19T07:48:47;94659.97;;;10.76;61.39
9721;BME280;4899;42.644;23.366;2023-02-19T07:51:18;94659.69;;;10.87;60.98
9721;BME280;4899;42.644;23.366;2023-02-19T07:53:45;94637.47;;;10.91;60.77
9721;BME280;4899;42.644;23.366;2023-02-19T07:56:12;94650.22;;;11.04;60.16
9721;BME280;4899;42.644;23.366;2023-02-19T07:58:38;94659.81;;;11.21;60.23
9721;BME280;4899;42.644;23.366;2023-02-19T08:01:14;94639.81;;;11.18;58.87
9721;BME280;4899;42.644;23.366;2023-02-19T08:03:40;94648.47;;;11.39;59.23
9721;BME280;4899;42.644;23.366;2023-02-19T08:06:06;94652.59;;;11.49;58.54
9721;BME280;4899;42.644;23.366;2023-02-19T08:08:31;94652.16;;;11.56;58.22
9721;BME280;4899;42.644;23.366;2023-02-19T08:11:01;94653.97;;;11.64;57.86
9721;BME280;4899;42.644;23.366;2023-02-19T08:13:47;94645.97;;;11.74;57.65
9721;BME280;4899;42.644;23.366;2023-02-19T08:16:14;94656.13;;;11.88;56.83
9721;BME280;4899;42.644;23.366;2023-02-19T08:18:42;94625.78;;;11.76;56.24
9721;BME280;4899;42.644;23.366;2023-02-19T08:21:09;94647.19;;;12.02;56.20
9721;BME280;4899;42.644;23.366;2023-02-19T08:23:34;94663.13;;;12.22;56.05
9721;BME280;4899;42.644;23.366;2023-02-19T08:26:00;94655.38;;;12.22;55.09
9721;BME280;4899;42.644;23.366;2023-02-19T08:28:27;94649.28;;;12.35;55.77
9721;BME280;4899;42.644;23.366;2023-02-19T08:30:58;94644.25;;;12.39;54.41
9721;BME280;4899;42.644;23.366;2023-02-19T08:33:24;94645.00;;;12.39;54.28
9721;BME280;4899;42.644;23.366;2023-02-19T08:35:50;94653.81;;;12.47;54.53
9721;BME280;4899;42.644;23.366;2023-02-19T08:38:15;94651.53;;;12.45;54.93
9721;BME280;4899;42.644;23.366;2023-02-19T08:40:41;94659.09;;;12.59;54.46
9721;BME280;4899;42.644;23.366;2023-02-19T08:43:15;94654.81;;;12.63;53.18
9721;BME280;4899;42.644;23.366;2023-02-19T08:45:43;94651.78;;;12.70;53.98
9721;BME280;4899;42.644;23.366;2023-02-19T08:48:09;94637.50;;;12.72;54.21
9721;BME280;4899;42.644;23.366;2023-02-19T08:50:36;94627.00;;;12.77;53.77
9721;BME280;4899;42.644;23.366;2023-02-19T08:53:03;94640.47;;;12.83;53.54
9721;BME280;4899;42.644;23.366;2023-02-19T08:55:29;94637.44;;;12.89;53.46
9721;BME280;4899;42.644;23.366;2023-02-19T08:57:55;94627.06;;;12.98;53.52
9721;BME280;4899;42.644;23.366;2023-02-19T09:00:21;94627.78;;;13.07;53.17
9721;BME280;4899;42.644;23.366;2023-02-19T09:02:48;94613.59;;;13.13;53.08
9721;BME280;4899;42.644;23.366;2023-02-19T09:05:14;94621.78;;;13.24;52.83
9721;BME280;4899;42.644;23.366;2023-02-19T09:07:40;94642.97;;;13.38;52.42
9721;BME280;4899;42.644;23.366;2023-02-19T09:10:06;94611.41;;;13.53;52.81
9721;BME280;4899;42.644;23.366;2023-02-19T09:12:31;94613.06;;;13.58;52.76
9721;BME280;4899;42.644;23.366;2023-02-19T09:14:59;94619.50;;;13.73;52.05
9721;BME280;4899;42.644;23.366;2023-02-19T09:17:25;94604.34;;;13.83;52.30
9721;BME280;4899;42.644;23.366;2023-02-19T09:19:51;94600.50;;;13.90;51.92
9721;BME280;4899;42.644;23.366;2023-02-19T09:22:16;94605.63;;;14.10;52.03
9721;BME280;4899;42.644;23.366;2023-02-19T09:24:42;94592.56;;;14.07;51.18
9721;BME280;4899;42.644;23.366;2023-02-19T09:27:08;94591.19;;;14.09;51.76
9721;BME280;4899;42.644;23.366;2023-02-19T09:29:38;94597.38;;;14.29;50.72
9721;BME280;4899;42.644;23.366;2023-02-19T09:32:04;94600.41;;;14.31;50.35
9721;BME280;4899;42.644;23.366;2023-02-19T09:34:29;94618.84;;;14.30;50.19
9721;BME280;4899;42.644;23.366;2023-02-19T09:36:55;94600.66;;;14.38;49.83
9721;BME280;4899;42.644;23.366;2023-02-19T09:39:20;94610.34;;;14.41;49.82
9721;BME280;4899;42.644;23.366;2023-02-19T09:41:48;94604.28;;;14.37;49.78
9721;BME280;4899;42.644;23.366;2023-02-19T09:44:22;94594.84;;;14.41;49.39
9721;BME280;4899;42.644;23.366;2023-02-19T09:46:51;94589.16;;;14.48;49.72
9721;BME280;4899;42.644;23.366;2023-02-19T09:49:37;94604.16;;;14.55;49.02
9721;BME280;4899;42.644;23.366;2023-02-19T09:54:38;94588.31;;;14.68;49.19
9721;BME280;4899;42.644;23.366;2023-02-19T09:57:11;94601.78;;;14.86;48.50
9721;BME280;4899;42.644;23.366;2023-02-19T09:59:45;94578.59;;;14.90;47.93
9721;BME280;4899;42.644;23.366;2023-02-19T10:04:41;94568.00;;;15.07;47.42
9721;BME280;4899;42.644;23.366;2023-02-19T10:07:24;94560.56;;;14.93;46.38
9721;BME280;4899;42.644;23.366;2023-02-19T10:10:29;94550.72;;;15.11;46.88
9721;BME280;4899;42.644;23.366;2023-02-19T10:12:49;94561.34;;;15.46;47.16
9721;BME280;4899;42.644;23.366;2023-02-19T10:17:49;94545.31;;;15.56;47.02
9721;BME280;4899;42.644;23.366;2023-02-19T10:20:17;94546.53;;;15.59;46.25
9721;BME280;4899;42.644;23.366;2023-02-19T10:22:44;94530.00;;;15.79;47.12
9721;BME280;4899;42.644;23.366;2023-02-19T10:25:18;94520.94;;;16.01;45.36
9721;BME280;4899;42.644;23.366;2023-02-19T10:27:44;94520.63;;;16.18;46.59
9721;BME280;4899;42.644;23.366;2023-02-19T10:30:21;94507.00;;;16.37;45.11
9721;BME280;4899;42.644;23.366;2023-02-19T10:33:11;94496.13;;;16.82;44.15
9721;BME280;4899;42.644;23.366;2023-02-19T10:38:17;94496.00;;;16.75;43.92
9721;BME280;4899;42.644;23.366;2023-02-19T10:40:45;94489.22;;;16.71;45.12
9721;BME280;4899;42.644;23.366;2023-02-19T10:43:26;94480.84;;;16.61;43.38
9721;BME280;4899;42.644;23.366;2023-02-19T10:46:01;94484.72;;;16.36;43.68
9721;BME280;4899;42.644;23.366;2023-02-19T10:48:34;94492.31;;;16.45;43.74
9721;BME280;4899;42.644;23.366;2023-02-19T10:51:04;94479.69;;;16.43;43.82
9721;BME280;4899;42.644;23.366;2023-02-19T10:56:14;94460.41;;;16.28;43.55
9721;BME280;4899;42.644;23.366;2023-02-19T10:58:41;94470.38;;;16.42;43.86
9721;BME280;4899;42.644;23.366;2023-02-19T11:01:23;94449.50;;;16.70;42.71
9721;BME280;4899;42.644;23.366;2023-02-19T11:04:15;94445.97;;;16.98;42.38
9721;BME280;4899;42.644;23.366;2023-02-19T11:06:41;94447.78;;;17.13;43.48
9721;BME280;4899;42.644;23.366;2023-02-19T11:11:49;94430.44;;;17.40;43.26
9721;BME280;4899;42.644;23.366;2023-02-19T11:14:18;94426.94;;;17.51;43.00
9721;BME280;4899;42.644;23.366;2023-02-19T11:24:49;94396.47;;;17.52;41.42
9721;BME280;4899;42.644;23.366;2023-02-19T11:27:18;94407.88;;;17.67;42.70
9721;BME280;4899;42.644;23.366;2023-02-19T11:29:45;94399.81;;;17.72;42.54
9721;BME280;4899;42.644;23.366;2023-02-19T11:34:45;94373.50;;;17.77;42.46
9721;BME280;4899;42.644;23.366;2023-02-19T11:37:13;94372.91;;;18.10;41.88
9721;BME280;4899;42.644;23.366;2023-02-19T11:39:45;94362.41;;;18.33;41.37
9721;BME280;4899;42.644;23.366;2023-02-19T11:42:22;94364.53;;;18.54;41.53
9721;BME280;4899;42.644;23.366;2023-02-19T11:55:17;94298.03;;;22.89;37.90
9721;BME280;4899;42.644;23.366;2023-02-19T11:57:46;94293.47;;;23.52;37.12
9721;BME280;4899;42.644;23.366;2023-02-19T12:00:30;94277.63;;;23.70;35.73
9721;BME280;4899;42.644;23.366;2023-02-19T12:03:42;94246.13;;;24.42;31.80
9721;BME280;4899;42.644;23.366;2023-02-19T12:06:23;94233.41;;;25.91;33.37
9721;BME280;4899;42.644;23.366;2023-02-19T12:34:03;94146.28;;;29.12;26.54
9721;BME280;4899;42.644;23.366;2023-02-19T12:42:07;94105.19;;;30.78;26.03
9721;BME280;4899;42.644;23.366;2023-02-19T12:44:53;94084.69;;;30.48;23.36
9721;BME280;4899;42.644;23.366;2023-02-19T12:47:24;94097.88;;;31.28;25.55
9721;BME280;4899;42.644;23.366;2023-02-19T12:53:14;94075.28;;;30.56;23.39
9721;BME280;4899;42.644;23.366;2023-02-19T12:55:43;94088.13;;;30.17;25.88
9721;BME280;4899;42.644;23.366;2023-02-19T12:58:31;94072.13;;;30.98;23.08
9721;BME280;4899;42.644;23.366;2023-02-19T13:01:00;94074.34;;;31.63;24.33
9721;BME280;4899;42.644;23.366;2023-02-19T13:06:34;94078.47;;;33.00;22.34
9721;BME280;4899;42.644;23.366;2023-02-19T13:09:10;94082.81;;;32.88;23.16
9721;BME280;4899;42.644;23.366;2023-02-19T13:11:48;94077.31;;;33.54;21.91
9721;BME280;4899;42.644;23.366;2023-02-19T13:14:23;94090.09;;;33.65;22.23
9721;BME280;4899;42.644;23.366;2023-02-19T13:16:56;94097.44;;;33.70;22.24
9721;BME280;4899;42.644;23.366;2023-02-19T13:19:23;94087.75;;;33.04;22.23
9721;BME280;4899;42.644;23.366;2023-02-19T13:21:57;94090.88;;;32.79;21.95
9721;BME280;4899;42.644;23.366;2023-02-19T13:25:04;94087.16;;;33.24;22.66
9721;BME280;4899;42.644;23.366;2023-02-19T13:38:02;94065.53;;;35.10;20.58
9721;BME280;4899;42.644;23.366;2023-02-19T13:40:36;94064.56;;;34.73;19.36
9721;BME280;4899;42.644;23.366;2023-02-19T13:43:24;94052.28;;;34.11;18.89
9721;BME280;4899;42.644;23.366;2023-02-19T13:45:59;94048.56;;;34.38;20.25
9721;BME280;4899;42.644;23.366;2023-02-19T13:48:31;94063.75;;;34.46;20.39
9721;BME280;4899;42.644;23.366;2023-02-19T13:53:54;94060.31;;;32.32;21.78
9721;BME280;4899;42.644;23.366;2023-02-19T14:04:46;94080.31;;;26.71;24.42
9721;BME280;4899;42.644;23.366;2023-02-19T14:14:51;94096.06;;;26.05;25.94
9721;BME280;4899;42.644;23.366;2023-02-19T14:20:02;94096.81;;;26.91;25.83
9721;BME280;4899;42.644;23.366;2023-02-19T14:25:44;94093.69;;;25.32;26.73
9721;BME280;4899;42.644;23.366;2023-02-19T14:33:43;94081.06;;;28.79;24.18
9721;BME280;4899;42.644;23.366;2023-02-19T14:36:28;94064.81;;;29.90;23.38
9721;BME280;4899;42.644;23.366;2023-02-19T14:39:02;94071.13;;;30.06;24.19
9721;BME280;4899;42.644;23.366;2023-02-19T14:41:32;94063.06;;;29.65;24.24
9721;BME280;4899;42.644;23.366;2023-02-19T14:43:59;94055.44;;;28.76;24.68
9721;BME280;4899;42.644;23.366;2023-02-19T14:46:40;94057.44;;;27.83;25.21
9721;BME280;4899;42.644;23.366;2023-02-19T14:49:17;94058.13;;;26.52;25.49
9721;BME280;4899;42.644;23.366;2023-02-19T14:51:46;94063.50;;;25.76;26.19
9721;BME280;4899;42.644;23.366;2023-02-19T14:54:18;94081.72;;;25.27;26.67
9721;BME280;4899;42.644;23.366;2023-02-19T14:56:48;94074.09;;;25.33;26.91
9721;BME280;4899;42.644;23.366;2023-02-19T15:01:44;94079.19;;;24.97;27.31
9721;BME280;4899;42.644;23.366;2023-02-19T15:04:24;94080.78;;;24.44;27.98
9721;BME280;4899;42.644;23.366;2023-02-19T15:06:50;94075.59;;;23.79;28.11
9721;BME280;4899;42.644;23.366;2023-02-19T15:09:18;94076.13;;;23.29;28.82
9721;BME280;4899;42.644;23.366;2023-02-19T15:11:45;94068.91;;;23.03;29.44
9721;BME280;4899;42.644;23.366;2023-02-19T15:14:18;94079.22;;;22.83;29.60
9721;BME280;4899;42.644;23.366;2023-02-19T15:16:45;94081.09;;;22.31;29.91
9721;BME280;4899;42.644;23.366;2023-02-19T15:19:13;94082.81;;;21.78;30.27
9721;BME280;4899;42.644;23.366;2023-02-19T15:21:44;94068.41;;;21.13;31.08
9721;BME280;4899;42.644;23.366;2023-02-19T15:24:12;94071.47;;;20.66;31.44
9721;BME280;4899;42.644;23.366;2023-02-19T15:26:41;94085.56;;;20.15;31.99
9721;BME280;4899;42.644;23.366;2023-02-19T15:29:13;94085.81;;;19.74;33.12
9721;BME280;4899;42.644;23.366;2023-02-19T15:31:47;94091.91;;;19.30;33.93
9721;BME280;4899;42.644;23.366;2023-02-19T15:34:24;94090.94;;;18.91;33.90
9721;BME280;4899;42.644;23.366;2023-02-19T15:36:54;94088.41;;;18.57;34.08
9721;BME280;4899;42.644;23.366;2023-02-19T15:39:23;94092.28;;;18.30;34.50
9721;BME280;4899;42.644;23.366;2023-02-19T15:41:55;94110.34;;;18.12;34.64
9721;BME280;4899;42.644;23.366;2023-02-19T15:47:28;94120.84;;;17.59;36.75
9721;BME280;4899;42.644;23.366;2023-02-19T15:50:14;94130.84;;;17.27;36.73
9721;BME280;4899;42.644;23.366;2023-02-19T15:55:46;94146.03;;;16.76;38.94
9721;BME280;4899;42.644;23.366;2023-02-19T15:58:44;94141.91;;;16.52;38.85
9721;BME280;4899;42.644;23.366;2023-02-19T16:01:24;94156.91;;;16.39;37.58